createdAt,value
2019-06-08T00:00:34.992Z,59.70
2019-06-08T00:03:07.043Z,59.73
2019-06-08T00:05:38.997Z,59.49
2019-06-08T00:08:11.027Z,60.94
2019-06-08T00:10:43.015Z,60.74
2019-06-08T00:13:15.194Z,60.47
2019-06-08T00:15:47.165Z,59.94
2019-06-08T00:18:23.409Z,59.78
2019-06-08T00:20:55.746Z,60.29
2019-06-08T00:23:27.979Z,60.83
2019-06-08T00:25:59.920Z,61.13
2019-06-08T00:28:31.874Z,61.18
2019-06-08T00:31:03.840Z,59.44
2019-06-08T00:33:35.805Z,59.93
2019-06-08T00:36:07.730Z,59.99
2019-06-08T00:38:39.731Z,60.02
2019-06-08T00:41:11.676Z,60.17
2019-06-08T00:43:43.649Z,59.95
2019-06-08T00:46:15.610Z,60.38
2019-06-08T00:48:47.584Z,60.51
2019-06-08T00:51:20.871Z,60.11
2019-06-08T00:53:53.132Z,59.79
2019-06-08T00:56:26.004Z,60.35
2019-06-08T00:58:58.150Z,60.50
2019-06-08T01:01:30.849Z,60.22
2019-06-08T01:04:03.249Z,60.66
2019-06-08T01:06:35.208Z,61.07
2019-06-08T01:09:07.168Z,60.81
2019-06-08T01:11:39.146Z,61.07
2019-06-08T01:14:11.128Z,60.82
2019-06-08T01:16:43.075Z,60.80
2019-06-08T01:19:15.033Z,61.38
2019-06-08T01:21:46.997Z,61.26
2019-06-08T01:24:19.678Z,61.11
2019-06-08T01:26:51.720Z,62.50
2019-06-08T01:29:24.151Z,63.49
2019-06-08T01:31:56.157Z,64.18
2019-06-08T01:34:29.043Z,64.72
2019-06-08T01:37:01.081Z,64.74
2019-06-08T01:39:33.165Z,64.81
2019-06-08T01:42:05.099Z,65.25
2019-06-08T01:44:37.062Z,64.93
2019-06-08T01:47:09.000Z,64.25
2019-06-08T01:49:40.994Z,63.33
2019-06-08T01:52:12.949Z,63.52
2019-06-08T01:54:44.925Z,62.69
2019-06-08T01:57:19.507Z,63.07
2019-06-08T01:59:51.497Z,62.75
2019-06-08T02:02:23.796Z,62.59
2019-06-08T02:04:55.942Z,63.04
2019-06-08T02:07:28.383Z,63.55
2019-06-08T02:10:00.401Z,63.76
2019-06-08T02:12:33.118Z,63.25
2019-06-08T02:15:06.430Z,62.20
2019-06-08T02:17:38.385Z,62.22
2019-06-08T02:20:10.659Z,62.50
2019-06-08T02:22:42.619Z,62.02
2019-06-08T02:25:15.676Z,62.45
2019-06-08T02:27:47.642Z,62.91
2019-06-08T02:30:19.599Z,62.67
2019-06-08T02:32:51.563Z,62.27
2019-06-08T02:35:23.543Z,62.23
2019-06-08T02:37:55.475Z,61.74
2019-06-08T02:40:27.567Z,60.93
2019-06-08T02:42:59.526Z,61.38
2019-06-08T02:45:31.998Z,60.99
2019-06-08T02:48:05.377Z,60.59
2019-06-08T02:50:53.945Z,60.77
2019-06-08T02:53:26.547Z,60.96
2019-06-08T02:55:58.665Z,61.51
2019-06-08T02:58:33.575Z,61.25
2019-06-08T03:01:06.674Z,61.41
2019-06-08T03:03:40.274Z,61.13
2019-06-08T03:06:13.864Z,61.10
2019-06-08T03:08:48.013Z,60.22
2019-06-08T03:11:20.303Z,60.34
2019-06-08T03:13:55.076Z,60.07
2019-06-08T03:16:27.071Z,59.69
2019-06-08T03:18:59.048Z,59.90
2019-06-08T03:21:31.387Z,60.73
2019-06-08T03:24:03.494Z,60.70
2019-06-08T03:26:36.692Z,60.33
2019-06-08T03:29:09.314Z,60.94
2019-06-08T03:31:53.954Z,60.79
2019-06-08T03:34:15.188Z,60.99
2019-06-08T03:36:55.386Z,60.74
2019-06-08T03:39:21.014Z,59.51
2019-06-08T03:41:52.981Z,58.20
2019-06-08T03:44:24.969Z,58.14
2019-06-08T03:46:56.910Z,58.62
2019-06-08T03:49:41.317Z,59.30
2019-06-08T03:52:02.821Z,58.62
2019-06-08T03:54:36.143Z,57.99
2019-06-08T03:57:08.625Z,58.13
2019-06-08T03:59:41.494Z,58.41
2019-06-08T04:02:14.488Z,58.61
2019-06-08T04:04:46.509Z,58.34
2019-06-08T04:07:18.459Z,57.52
2019-06-08T04:09:50.397Z,57.75
2019-06-08T04:12:22.433Z,56.83
2019-06-08T04:14:54.479Z,56.84
2019-06-08T04:17:26.428Z,56.39
2019-06-08T04:20:10.279Z,56.96
2019-06-08T04:22:32.811Z,56.72
2019-06-08T04:25:05.123Z,56.59
2019-06-08T04:27:38.434Z,56.48
2019-06-08T04:30:11.592Z,55.65
2019-06-08T04:32:44.903Z,56.05
2019-06-08T04:35:17.159Z,56.08
2019-06-08T04:37:50.479Z,56.89
2019-06-08T04:40:22.784Z,56.85
2019-06-08T04:42:54.720Z,56.88
2019-06-08T04:45:26.685Z,56.48
2019-06-08T04:47:58.628Z,56.36
2019-06-08T04:50:30.587Z,56.21
2019-06-08T04:53:02.537Z,56.20
2019-06-08T04:55:34.504Z,55.98
2019-06-08T04:58:06.477Z,55.63
2019-06-08T05:00:39.084Z,54.86
2019-06-08T05:03:11.715Z,54.10
2019-06-08T05:05:45.193Z,53.74
2019-06-08T05:08:17.388Z,53.59
2019-06-08T05:10:49.756Z,52.55
2019-06-08T05:13:22.005Z,52.07
2019-06-08T05:15:54.015Z,51.40
2019-06-08T05:18:26.246Z,51.44
2019-06-08T05:20:58.291Z,51.54
2019-06-08T05:23:30.492Z,50.75
2019-06-08T05:26:02.468Z,50.25
2019-06-08T05:28:34.403Z,49.97
2019-06-08T05:31:06.378Z,50.03
2019-06-08T05:33:39.221Z,49.47
2019-06-08T05:36:11.389Z,48.62
2019-06-08T05:38:43.486Z,49.57
2019-06-08T05:41:15.525Z,48.11
2019-06-08T05:43:47.704Z,48.21
2019-06-08T05:46:19.650Z,48.50
2019-06-08T05:48:51.636Z,48.51
2019-06-08T05:51:23.591Z,48.98
2019-06-08T05:53:55.552Z,47.82
2019-06-08T05:56:27.504Z,48.68
2019-06-08T05:58:59.487Z,48.20
2019-06-08T06:01:31.413Z,48.50
2019-06-08T06:04:03.410Z,49.07
2019-06-08T06:06:35.378Z,47.90
2019-06-08T06:09:07.668Z,48.00
2019-06-08T06:11:40.671Z,48.06
2019-06-08T06:14:12.711Z,48.13
2019-06-08T06:16:44.965Z,48.45
2019-06-08T06:19:17.044Z,48.79
2019-06-08T06:21:49.286Z,49.10
2019-06-08T06:24:21.256Z,48.21
2019-06-08T06:26:53.240Z,47.45
2019-06-08T06:29:25.269Z,46.74
2019-06-08T06:31:57.195Z,46.81
2019-06-08T06:34:29.172Z,46.71
2019-06-08T06:37:01.107Z,46.95
2019-06-08T06:39:33.096Z,46.78
2019-06-08T06:42:05.073Z,45.74
2019-06-08T06:44:37.067Z,46.21
2019-06-08T06:47:09.043Z,45.69
2019-06-08T06:49:42.296Z,45.70
2019-06-08T06:52:14.401Z,45.78
2019-06-08T06:54:46.723Z,45.53
2019-06-08T06:57:18.732Z,45.39
2019-06-08T06:59:51.952Z,46.39
2019-06-08T07:02:24.111Z,45.79
2019-06-08T07:04:56.118Z,45.45
2019-06-08T07:07:28.073Z,44.62
2019-06-08T07:10:00.070Z,43.82
2019-06-08T07:12:32.063Z,44.79
2019-06-08T07:15:04.868Z,44.33
2019-06-08T07:17:36.857Z,43.47
2019-06-08T07:20:08.955Z,42.96
2019-06-08T07:22:40.934Z,44.01
2019-06-08T07:25:13.263Z,43.60
2019-06-08T07:27:46.436Z,44.25
2019-06-08T07:30:18.607Z,41.17
2019-06-08T07:32:50.974Z,39.92
2019-06-08T07:35:23.113Z,39.09
2019-06-08T07:37:55.521Z,37.47
2019-06-08T07:40:27.613Z,37.59
2019-06-08T07:43:00.384Z,35.19
2019-06-08T07:45:32.608Z,34.50
2019-06-08T07:48:04.765Z,33.76
2019-06-08T07:50:36.728Z,34.84
2019-06-08T07:53:08.683Z,32.92
2019-06-08T07:55:40.707Z,33.36
2019-06-08T07:58:12.660Z,32.56
2019-06-08T08:00:44.676Z,32.07
2019-06-08T08:03:16.706Z,30.50
2019-06-08T08:05:48.667Z,30.90
2019-06-08T08:08:20.671Z,30.15
2019-06-08T08:10:52.672Z,30.72
2019-06-08T08:13:24.653Z,29.50
2019-06-08T08:15:58.640Z,29.22
2019-06-08T08:18:30.562Z,28.75
2019-06-08T08:21:09.278Z,29.70
2019-06-08T08:23:38.239Z,29.16
2019-06-08T08:26:10.290Z,27.84
2019-06-08T08:28:42.282Z,28.20
2019-06-08T08:31:15.408Z,29.93
2019-06-08T08:33:49.721Z,30.22
2019-06-08T08:36:21.369Z,29.60
2019-06-08T08:38:53.655Z,29.24
2019-06-08T08:41:27.854Z,29.35
2019-06-08T08:44:02.849Z,28.95
2019-06-08T08:46:33.493Z,29.05
2019-06-08T08:49:10.370Z,29.07
2019-06-08T08:51:39.410Z,29.84
2019-06-08T08:54:11.408Z,29.70
2019-06-08T08:56:43.376Z,29.77
2019-06-08T08:59:17.612Z,28.80
2019-06-08T09:01:51.293Z,28.13
2019-06-08T09:04:23.395Z,28.47
2019-06-08T09:06:57.879Z,26.96
2019-06-08T09:09:29.203Z,27.25
2019-06-08T09:12:04.274Z,27.01
2019-06-08T09:14:35.035Z,25.80
2019-06-08T09:17:08.537Z,25.17
2019-06-08T09:19:40.865Z,25.47
2019-06-08T09:22:12.879Z,25.12
2019-06-08T09:24:44.846Z,25.37
2019-06-08T09:27:17.924Z,25.07
2019-06-08T09:29:50.017Z,24.65
2019-06-08T09:32:23.121Z,25.27
2019-06-08T09:34:57.182Z,26.32
2019-06-08T09:37:28.968Z,25.25
2019-06-08T09:40:02.579Z,26.02
2019-06-08T09:42:34.889Z,25.12
2019-06-08T09:45:09.039Z,25.63
2019-06-08T09:47:41.241Z,25.45
2019-06-08T09:50:13.444Z,27.03
2019-06-08T09:52:47.733Z,26.61
2019-06-08T09:55:19.363Z,27.16
2019-06-08T09:57:51.370Z,27.36
2019-06-08T10:00:28.375Z,26.87
2019-06-08T10:03:01.328Z,27.72
2019-06-08T10:05:31.595Z,26.87
2019-06-08T10:08:04.619Z,26.50
2019-06-08T10:10:37.523Z,26.01
2019-06-08T10:13:10.181Z,26.41
2019-06-08T10:15:42.359Z,26.07
2019-06-08T10:18:14.324Z,26.86
2019-06-08T10:20:48.166Z,26.33
2019-06-08T10:23:30.884Z,26.34
2019-06-08T10:25:54.890Z,26.60
2019-06-08T10:28:28.965Z,26.72
2019-06-08T10:31:03.269Z,26.35
2019-06-08T10:33:40.292Z,26.06
2019-06-08T10:36:12.276Z,26.76
2019-06-08T10:38:42.807Z,25.74
2019-06-08T10:41:19.005Z,26.36
2019-06-08T10:43:48.911Z,24.89
2019-06-08T10:46:21.150Z,25.48
2019-06-08T10:48:53.301Z,25.94
2019-06-08T10:51:25.278Z,25.80
2019-06-08T10:53:57.974Z,25.53
2019-06-08T10:56:31.149Z,25.83
2019-06-08T10:59:05.138Z,25.52
2019-06-08T11:01:38.545Z,25.26
2019-06-08T11:04:10.796Z,25.44
2019-06-08T11:06:42.799Z,25.30
2019-06-08T11:09:15.581Z,25.21
2019-06-08T11:11:48.746Z,25.27
2019-06-08T11:14:22.751Z,25.18
2019-06-08T11:16:54.654Z,24.69
2019-06-08T11:19:26.783Z,24.14
2019-06-08T11:22:02.900Z,24.88
2019-06-08T11:24:32.696Z,24.62
2019-06-08T11:27:05.668Z,23.91
2019-06-08T11:29:38.447Z,23.94
2019-06-08T11:32:12.438Z,24.17
2019-06-08T11:34:44.673Z,24.36
2019-06-08T11:37:20.837Z,25.08
2019-06-08T11:39:50.565Z,24.85
2019-06-08T11:42:25.478Z,25.07
2019-06-08T11:44:58.506Z,24.60
2019-06-08T11:47:31.027Z,24.53
2019-06-08T11:50:04.622Z,23.82
2019-06-08T11:52:38.261Z,23.77
2019-06-08T11:55:12.889Z,24.31
2019-06-08T11:57:44.294Z,24.32
2019-06-08T12:00:31.026Z,25.43
2019-06-08T12:03:02.631Z,25.71
2019-06-08T12:05:35.934Z,24.66
2019-06-08T12:08:08.436Z,25.21
2019-06-08T12:10:41.164Z,24.99
2019-06-08T12:13:14.375Z,25.61
2019-06-08T12:15:48.746Z,24.44
2019-06-08T12:18:20.353Z,24.19
2019-06-08T12:20:52.350Z,25.18
2019-06-08T12:23:24.395Z,24.13
2019-06-08T12:25:56.461Z,23.84
2019-06-08T12:28:28.468Z,24.15
2019-06-08T12:31:01.154Z,24.03
2019-06-08T12:33:33.279Z,24.27
2019-06-08T12:36:08.500Z,24.66
2019-06-08T12:38:39.570Z,24.84
2019-06-08T12:41:12.701Z,23.92
2019-06-08T12:43:47.841Z,24.25
2019-06-08T12:46:21.462Z,23.56
2019-06-08T12:48:53.273Z,22.75
2019-06-08T12:51:25.281Z,23.97
2019-06-08T12:54:00.003Z,24.43
2019-06-08T12:56:31.187Z,24.21
2019-06-08T12:59:03.180Z,25.29
2019-06-08T13:01:35.166Z,24.81
2019-06-08T13:04:07.407Z,24.26
2019-06-08T13:06:40.792Z,23.02
2019-06-08T13:09:13.468Z,24.00
2019-06-08T13:11:50.436Z,23.24
2019-06-08T13:14:20.915Z,23.42
2019-06-08T13:16:53.297Z,23.87
2019-06-08T13:19:27.517Z,24.70
2019-06-08T13:21:59.321Z,23.67
2019-06-08T13:24:31.342Z,23.64
2019-06-08T13:27:03.327Z,23.85
2019-06-08T13:29:35.299Z,22.74
2019-06-08T13:32:07.864Z,23.78
2019-06-08T13:34:39.938Z,23.61
2019-06-08T13:37:12.499Z,23.26
2019-06-08T13:39:45.310Z,23.76
2019-06-08T13:42:18.464Z,23.63
2019-06-08T13:44:51.148Z,23.23
2019-06-08T13:47:23.223Z,23.99
2019-06-08T13:49:55.276Z,23.88
2019-06-08T13:52:28.176Z,23.74
2019-06-08T13:55:00.384Z,23.82
2019-06-08T13:57:32.371Z,24.46
2019-06-08T14:00:05.190Z,24.26
2019-06-08T14:02:39.686Z,24.35
2019-06-08T14:05:11.315Z,22.94
2019-06-08T14:07:43.336Z,23.15
2019-06-08T14:10:22.116Z,23.56
2019-06-08T14:12:53.266Z,23.88
2019-06-08T14:15:27.832Z,23.01
2019-06-08T14:17:59.771Z,23.04
2019-06-08T14:20:34.292Z,22.71
2019-06-08T14:23:05.670Z,22.70
2019-06-08T14:25:47.979Z,22.61
2019-06-08T14:28:11.609Z,22.32
2019-06-08T14:30:43.664Z,23.02
2019-06-08T14:33:22.503Z,22.03
2019-06-08T14:35:49.681Z,21.97
2019-06-08T14:38:25.681Z,21.87
2019-06-08T14:40:55.564Z,21.97
2019-06-08T14:43:29.951Z,21.63
2019-06-08T14:46:01.447Z,21.26
2019-06-08T14:48:34.049Z,21.54
2019-06-08T14:51:08.574Z,21.65
2019-06-08T14:53:40.054Z,22.42
2019-06-08T14:56:12.117Z,21.95
2019-06-08T14:58:44.154Z,22.14
2019-06-08T15:01:19.526Z,21.95
2019-06-08T15:03:50.082Z,22.66
2019-06-08T15:06:23.234Z,22.06
2019-06-08T15:08:55.439Z,21.70
2019-06-08T15:11:28.810Z,22.51
2019-06-08T15:14:01.460Z,22.87
2019-06-08T15:16:33.473Z,22.47
2019-06-08T15:19:05.508Z,21.09
2019-06-08T15:21:38.089Z,20.76
2019-06-08T15:24:10.206Z,21.77
2019-06-08T15:26:45.243Z,22.21
2019-06-08T15:29:16.191Z,22.10
2019-06-08T15:31:48.490Z,22.08
2019-06-08T15:34:21.233Z,21.42
2019-06-08T15:36:53.249Z,21.51
2019-06-08T15:39:26.144Z,22.32
2019-06-08T15:42:00.243Z,22.54
2019-06-08T15:44:33.788Z,21.91
2019-06-08T15:47:08.070Z,23.56
2019-06-08T15:49:39.953Z,23.13
2019-06-08T15:52:11.955Z,22.62
2019-06-08T15:54:43.910Z,21.83
2019-06-08T15:57:18.035Z,21.26
2019-06-08T15:59:49.885Z,21.40
2019-06-08T16:02:23.063Z,20.80
2019-06-08T16:04:55.107Z,21.79
2019-06-08T16:07:30.765Z,21.16
2019-06-08T16:10:01.034Z,21.08
2019-06-08T16:12:33.415Z,21.24
2019-06-08T16:15:07.055Z,21.75
2019-06-08T16:17:39.073Z,22.04
2019-06-08T16:20:11.101Z,22.14
2019-06-08T16:22:43.179Z,21.95
2019-06-08T16:25:15.136Z,22.22
2019-06-08T16:27:47.143Z,22.85
2019-06-08T16:30:19.249Z,22.55
2019-06-08T16:32:51.246Z,22.57
2019-06-08T16:35:23.230Z,23.23
2019-06-08T16:37:55.204Z,24.92
2019-06-08T16:40:27.645Z,25.44
2019-06-08T16:42:59.809Z,25.25
2019-06-08T16:45:33.035Z,26.78
2019-06-08T16:48:05.220Z,26.97
2019-06-08T16:50:38.447Z,26.30
2019-06-08T16:53:10.601Z,25.99
2019-06-08T16:55:42.600Z,26.62
2019-06-08T16:58:14.581Z,27.13
2019-06-08T17:00:46.688Z,27.83
2019-06-08T17:03:18.698Z,28.16
2019-06-08T17:05:50.690Z,28.58
2019-06-08T17:08:22.683Z,27.23
2019-06-08T17:10:54.738Z,27.82
2019-06-08T17:13:26.732Z,28.09
2019-06-08T17:15:58.777Z,28.49
2019-06-08T17:18:32.103Z,28.76
2019-06-08T17:21:04.697Z,28.70
2019-06-08T17:23:36.662Z,28.66
2019-06-08T17:26:08.639Z,29.19
2019-06-08T17:28:41.135Z,28.95
2019-06-08T17:31:13.226Z,28.47
2019-06-08T17:33:45.480Z,27.80
2019-06-08T17:36:17.475Z,28.44
2019-06-08T17:38:49.487Z,28.58
2019-06-08T17:41:21.624Z,29.52
2019-06-08T17:43:53.586Z,30.23
2019-06-08T17:46:25.592Z,30.41
2019-06-08T17:48:57.607Z,30.44
2019-06-08T17:51:29.611Z,30.15
2019-06-08T17:54:01.595Z,30.50
2019-06-08T17:56:35.008Z,31.10
2019-06-08T17:59:07.359Z,32.23
2019-06-08T18:01:39.750Z,31.67
2019-06-08T18:04:11.741Z,31.49
2019-06-08T18:06:44.637Z,31.56
2019-06-08T18:09:17.773Z,31.73
2019-06-08T18:11:49.990Z,31.94
2019-06-08T18:14:22.001Z,32.49
2019-06-08T18:16:54.080Z,32.43
2019-06-08T18:19:28.322Z,32.32
2019-06-08T18:22:06.328Z,32.24
2019-06-08T18:24:37.895Z,32.49
2019-06-08T18:27:09.243Z,33.16
2019-06-08T18:29:42.908Z,33.61
2019-06-08T18:32:15.256Z,34.84
2019-06-08T18:34:48.036Z,34.81
2019-06-08T18:37:20.201Z,35.46
2019-06-08T18:39:52.230Z,35.57
2019-06-08T18:42:24.303Z,35.61
2019-06-08T18:44:58.298Z,36.13
2019-06-08T18:47:30.289Z,36.20
2019-06-08T18:50:02.357Z,35.78
2019-06-08T18:52:36.021Z,36.28
2019-06-08T18:55:08.477Z,37.15
2019-06-08T18:57:41.455Z,38.04
2019-06-08T19:00:14.807Z,39.06
2019-06-08T19:02:49.959Z,40.57
2019-06-08T19:05:21.189Z,40.80
2019-06-08T19:07:53.717Z,41.24
2019-06-08T19:10:30.662Z,41.74
2019-06-08T19:13:02.772Z,42.32
2019-06-08T19:15:38.809Z,42.84
2019-06-08T19:18:09.229Z,43.15
2019-06-08T19:20:44.287Z,43.30
2019-06-08T19:23:15.150Z,44.06
2019-06-08T19:25:49.174Z,44.69
2019-06-08T19:28:35.243Z,44.38
2019-06-08T19:30:55.057Z,43.72
2019-06-08T19:33:28.055Z,43.55
2019-06-08T19:36:00.241Z,43.79
2019-06-08T19:38:32.293Z,44.63
2019-06-08T19:41:04.307Z,45.23
2019-06-08T19:43:38.681Z,45.05
2019-06-08T19:46:10.275Z,45.08
2019-06-08T19:48:44.026Z,45.95
2019-06-08T19:51:17.070Z,46.75
2019-06-08T19:53:52.995Z,47.01
2019-06-08T19:56:23.337Z,46.79
2019-06-08T19:59:01.789Z,48.03
2019-06-08T20:01:29.328Z,48.29
2019-06-08T20:04:01.693Z,47.57
2019-06-08T20:06:33.796Z,47.59
2019-06-08T20:09:08.324Z,48.28
2019-06-08T20:11:44.287Z,48.88
2019-06-08T20:14:14.537Z,48.75
2019-06-08T20:16:49.308Z,48.88
2019-06-08T20:19:20.583Z,49.70
2019-06-08T20:21:53.490Z,50.02
2019-06-08T20:24:27.832Z,50.31
2019-06-08T20:26:59.867Z,50.90
2019-06-08T20:29:31.934Z,50.98
2019-06-08T20:32:03.989Z,51.08
2019-06-08T20:34:38.095Z,50.82
2019-06-08T20:37:10.007Z,50.88
2019-06-08T20:39:57.286Z,50.72
2019-06-08T20:42:17.374Z,50.91
2019-06-08T20:44:51.601Z,51.34
2019-06-08T20:47:23.564Z,51.82
2019-06-08T20:49:58.117Z,52.30
2019-06-08T20:52:29.551Z,52.49
2019-06-08T20:55:01.545Z,51.16
2019-06-08T20:57:33.554Z,51.76
2019-06-08T21:00:11.029Z,51.90
2019-06-08T21:02:39.529Z,52.02
2019-06-08T21:05:11.968Z,52.23
2019-06-08T21:07:44.984Z,52.37
2019-06-08T21:10:17.933Z,52.68
2019-06-08T21:12:52.658Z,52.77
2019-06-08T21:15:24.071Z,52.17
2019-06-08T21:17:56.153Z,52.17
2019-06-08T21:20:28.398Z,53.53
2019-06-08T21:23:00.479Z,53.84
2019-06-08T21:25:32.488Z,53.93
2019-06-08T21:28:04.755Z,54.49
2019-06-08T21:30:37.729Z,54.29
2019-06-08T21:33:10.085Z,54.25
2019-06-08T21:35:42.076Z,54.22
2019-06-08T21:38:23.275Z,54.78
2019-06-08T21:40:50.930Z,55.46
2019-06-08T21:43:22.048Z,55.96
2019-06-08T21:45:54.812Z,55.88
2019-06-08T21:48:28.008Z,55.68
2019-06-08T21:51:01.744Z,55.70
2019-06-08T21:53:33.897Z,55.93
2019-06-08T21:56:07.904Z,56.05
2019-06-08T21:58:39.879Z,55.75
2019-06-08T22:01:12.197Z,56.00
2019-06-08T22:03:44.262Z,56.40
2019-06-08T22:06:17.681Z,56.48
2019-06-08T22:08:50.028Z,56.89
2019-06-08T22:11:22.176Z,56.67
2019-06-08T22:13:54.705Z,56.77
2019-06-08T22:16:27.379Z,57.00
2019-06-08T22:19:00.855Z,56.43
2019-06-08T22:21:33.060Z,56.94
2019-06-08T22:24:05.086Z,56.83
2019-06-08T22:26:37.095Z,57.03
2019-06-08T22:29:09.121Z,57.20
2019-06-08T22:31:41.135Z,57.74
2019-06-08T22:34:13.400Z,58.20
2019-06-08T22:36:47.673Z,58.28
2019-06-08T22:39:19.302Z,58.35
2019-06-08T22:41:51.474Z,58.54
2019-06-08T22:44:23.523Z,58.77
2019-06-08T22:46:58.454Z,58.67
2019-06-08T22:49:29.427Z,58.51
2019-06-08T22:52:03.007Z,58.54
2019-06-08T22:54:35.345Z,58.81
2019-06-08T22:57:08.215Z,58.28
2019-06-08T22:59:40.381Z,58.69
2019-06-08T23:02:12.372Z,58.96
2019-06-08T23:04:44.390Z,59.17
2019-06-08T23:07:26.627Z,59.77
2019-06-08T23:09:50.289Z,60.16
2019-06-08T23:12:22.281Z,60.51
2019-06-08T23:14:54.415Z,60.60
2019-06-08T23:17:28.007Z,60.34
2019-06-08T23:20:01.622Z,60.33
2019-06-08T23:22:33.991Z,60.01
2019-06-08T23:25:08.916Z,60.16
2019-06-08T23:27:39.956Z,60.51
2019-06-08T23:30:11.941Z,60.38
2019-06-08T23:32:43.916Z,60.26
2019-06-08T23:35:18.007Z,60.47
2019-06-08T23:37:49.840Z,60.64
2019-06-08T23:40:21.845Z,60.65
2019-06-08T23:42:53.877Z,60.55
2019-06-08T23:45:27.152Z,61.06
2019-06-08T23:48:01.036Z,61.08
2019-06-08T23:50:33.261Z,60.61
2019-06-08T23:53:07.737Z,60.44
2019-06-08T23:55:39.153Z,61.01
2019-06-08T23:58:11.401Z,61.16
